Time;durP1;ratioP1;P1;durP2;ratioP2;P2;SDS_P1;SDS_P2;PMS_P1;PMS_P2;Temp;Humidity;BMP_temperature;BMP_pressure;BME280_temperature;BME280_humidity;BME280_pressure;Samples;Min_cycle;Max_cycle;Signal;HPM_P1;HPM_P2
2021/03/24 00:01:30;;;;;;;27.32;8.70;;;;;;;4.24;77.00;99408.66;2190049;80;21847;-73
2021/03/24 00:04:32;;;;;;;26.10;8.65;;;;;;;4.23;77.53;99419.09;2193077;79;21304;-73
2021/03/24 00:07:35;;;;;;;26.40;8.90;;;;;;;4.21;77.25;99407.45;2190783;80;21735;-72
2021/03/24 00:10:37;;;;;;;26.30;8.93;;;;;;;4.23;76.88;99416.03;2184220;80;21720;-73
2021/03/24 00:13:39;;;;;;;27.05;8.33;;;;;;;4.24;76.43;99415.15;2193936;80;21379;-73
2021/03/24 00:16:41;;;;;;;26.30;9.23;;;;;;;4.26;77.01;99416.41;2204544;80;22042;-73
2021/03/24 00:19:43;;;;;;;26.48;8.88;;;;;;;4.26;76.89;99415.11;2200035;81;21272;-73
2021/03/24 00:22:45;;;;;;;24.45;8.45;;;;;;;4.25;76.60;99425.08;2193220;80;21292;-73
2021/03/24 00:25:47;;;;;;;27.37;9.28;;;;;;;4.25;76.38;99414.69;2193040;80;21280;-73
2021/03/24 00:28:52;;;;;;;26.75;8.80;;;;;;;4.26;76.27;99420.30;2192400;80;21299;-72
2021/03/24 00:31:53;;;;;;;27.85;9.35;;;;;;;4.27;76.18;99415.06;2191402;80;21747;-72
2021/03/24 00:34:55;;;;;;;25.37;8.93;;;;;;;4.25;76.40;99427.67;2195360;80;21720;-72
2021/03/24 00:37:57;;;;;;;26.85;9.35;;;;;;;4.20;76.48;99417.41;2197875;80;21720;-72
2021/03/24 00:40:59;;;;;;;23.80;8.23;;;;;;;4.20;76.23;99423.91;2197848;80;21744;-73
2021/03/24 00:44:01;;;;;;;26.95;8.65;;;;;;;4.18;76.21;99415.31;2197685;80;21613;-73
2021/03/24 00:47:03;;;;;;;25.70;8.68;;;;;;;4.18;76.33;99417.04;2200057;80;21182;-73
2021/03/24 00:50:05;;;;;;;26.87;9.05;;;;;;;4.16;76.56;99415.33;2188432;80;21303;-72
2021/03/24 00:53:08;;;;;;;27.93;9.38;;;;;;;4.15;76.41;99409.75;2196288;81;21755;-73
2021/03/24 00:56:10;;;;;;;25.05;9.28;;;;;;;4.16;76.22;99420.52;2187746;80;21286;-72
2021/03/24 00:59:12;;;;;;;27.55;8.60;;;;;;;4.15;76.33;99424.03;2195027;80;21712;-73
2021/03/24 01:02:14;;;;;;;30.68;9.30;;;;;;;4.10;76.63;99420.69;2189921;80;21372;-72
2021/03/24 01:05:17;;;;;;;26.50;9.10;;;;;;;4.10;76.39;99399.91;2200499;80;21292;-72
2021/03/24 01:08:19;;;;;;;27.60;9.48;;;;;;;4.11;76.45;99415.91;2199557;80;21160;-73
2021/03/24 01:11:21;;;;;;;29.57;9.30;;;;;;;4.13;76.26;99411.52;2187502;79;21166;-73
2021/03/24 01:14:24;;;;;;;28.80;9.08;;;;;;;4.10;76.49;99414.65;2191922;80;21594;-73
2021/03/24 01:17:26;;;;;;;26.82;8.98;;;;;;;4.09;76.68;99411.17;2191869;80;21289;-73
2021/03/24 01:20:28;;;;;;;25.88;9.63;;;;;;;4.10;76.62;99410.75;2199352;80;21288;-73
2021/03/24 01:23:30;;;;;;;25.85;9.23;;;;;;;4.09;76.48;99420.27;2190660;80;21170;-72
2021/03/24 01:26:32;;;;;;;27.30;9.45;;;;;;;4.09;76.18;99412.48;2193432;80;21761;-73
2021/03/24 01:29:34;;;;;;;31.05;9.63;;;;;;;4.09;76.39;99420.72;2195287;80;21823;-72
2021/03/24 01:32:36;;;;;;;27.80;9.55;;;;;;;4.06;76.40;99413.86;2188975;80;21315;-72
2021/03/24 01:35:39;;;;;;;27.00;8.98;;;;;;;4.10;76.40;99413.35;2194019;80;21288;-72
2021/03/24 01:38:42;;;;;;;25.25;9.00;;;;;;;4.08;76.34;99416.41;2190203;79;21189;-72
2021/03/24 01:41:43;;;;;;;26.68;8.88;;;;;;;4.08;76.30;99425.50;2182970;80;21296;-72
2021/03/24 01:44:45;;;;;;;25.75;9.45;;;;;;;4.06;76.41;99416.91;2195820;80;21324;-72
2021/03/24 01:47:48;;;;;;;28.90;9.00;;;;;;;4.01;76.66;99418.33;2193151;80;21378;-73
2021/03/24 01:50:50;;;;;;;30.32;10.20;;;;;;;4.01;76.18;99421.34;2197587;80;21154;-73
2021/03/24 01:53:52;;;;;;;29.25;9.48;;;;;;;3.96;76.48;99416.28;2187180;80;21316;-73
2021/03/24 01:56:54;;;;;;;28.20;9.15;;;;;;;3.94;76.49;99424.11;2189600;80;21303;-73
2021/03/24 01:59:56;;;;;;;29.70;9.50;;;;;;;3.93;76.73;99424.98;2187233;79;21293;-73
2021/03/24 02:02:58;;;;;;;29.72;9.43;;;;;;;3.89;76.69;99430.30;2193752;79;21288;-72
2021/03/24 02:06:00;;;;;;;26.40;9.40;;;;;;;3.88;76.84;99427.28;2187376;80;21280;-72
2021/03/24 02:09:02;;;;;;;25.80;8.93;;;;;;;3.86;76.80;99439.00;2187295;80;21295;-73
2021/03/24 02:12:04;;;;;;;28.00;9.38;;;;;;;3.83;77.12;99433.05;2204362;81;21280;-73
2021/03/24 02:15:06;;;;;;;27.75;9.50;;;;;;;3.79;77.08;99421.45;2198856;80;21297;-72
2021/03/24 02:18:08;;;;;;;28.65;9.55;;;;;;;3.79;76.99;99433.12;2198323;80;21312;-73
2021/03/24 02:21:10;;;;;;;29.75;10.10;;;;;;;3.79;76.95;99442.63;2189207;80;21384;-73
2021/03/24 02:24:12;;;;;;;29.72;10.18;;;;;;;3.78;76.97;99439.65;2172379;81;21716;-73
2021/03/24 02:27:15;;;;;;;30.08;10.55;;;;;;;3.77;77.33;99445.72;2201605;80;21290;-73
2021/03/24 02:30:17;;;;;;;27.58;9.35;;;;;;;3.77;77.08;99434.88;2206287;80;21284;-73
2021/03/24 02:33:19;;;;;;;27.30;9.60;;;;;;;3.76;76.96;99431.03;2189241;80;21800;-73
2021/03/24 02:36:21;;;;;;;28.50;10.58;;;;;;;3.76;76.80;99440.11;2194676;80;21724;-73
2021/03/24 02:39:23;;;;;;;25.75;9.90;;;;;;;3.77;77.09;99443.13;2192444;80;21296;-72
2021/03/24 02:42:25;;;;;;;26.20;9.83;;;;;;;3.75;76.88;99437.10;2203455;80;21740;-73
2021/03/24 02:45:27;;;;;;;30.50;10.70;;;;;;;3.72;77.27;99439.34;2188886;80;21335;-73
2021/03/24 02:48:29;;;;;;;26.33;9.60;;;;;;;3.72;76.98;99434.58;2194973;79;21312;-73
2021/03/24 02:51:31;;;;;;;27.35;9.85;;;;;;;3.74;76.88;99440.15;2201401;81;21712;-72
2021/03/24 02:54:33;;;;;;;29.82;9.65;;;;;;;3.74;77.25;99452.28;2189825;79;21851;-73
2021/03/24 02:57:35;;;;;;;26.77;9.85;;;;;;;3.74;77.25;99456.17;2189184;80;21724;-72
2021/03/24 03:00:37;;;;;;;28.70;10.00;;;;;;;3.73;77.17;99447.97;2190964;80;21720;-73
2021/03/24 03:03:39;;;;;;;27.50;9.65;;;;;;;3.73;77.16;99450.11;2177577;80;21293;-72
2021/03/24 03:06:41;;;;;;;29.02;9.50;;;;;;;3.73;77.38;99447.52;2196089;80;21272;-73
2021/03/24 03:09:43;;;;;;;30.43;10.13;;;;;;;3.72;77.13;99444.95;2172349;80;21276;-73
2021/03/24 03:12:45;;;;;;;27.35;10.82;;;;;;;3.71;77.36;99444.12;2192113;79;21293;-73
2021/03/24 03:15:47;;;;;;;29.87;9.25;;;;;;;3.71;77.18;99448.47;2192833;80;21280;-73
2021/03/24 03:18:49;;;;;;;31.05;9.45;;;;;;;3.69;77.62;99444.58;2193743;79;21765;-73
2021/03/24 03:21:51;;;;;;;25.00;8.90;;;;;;;3.69;77.30;99441.98;2200444;80;21292;-72
2021/03/24 03:24:53;;;;;;;29.32;9.38;;;;;;;3.69;77.21;99447.63;2196667;80;21285;-72
2021/03/24 03:27:55;;;;;;;29.30;9.65;;;;;;;3.68;77.40;99455.87;2201044;80;21312;-72
2021/03/24 03:30:57;;;;;;;31.35;10.10;;;;;;;3.67;77.26;99450.27;2195092;79;21292;-73
2021/03/24 03:33:59;;;;;;;26.50;9.30;;;;;;;3.67;77.30;99450.72;2190839;80;21351;-72
2021/03/24 03:37:02;;;;;;;26.87;9.85;;;;;;;3.61;77.16;99448.66;2202584;80;21609;-73
2021/03/24 03:40:04;;;;;;;29.75;10.00;;;;;;;3.62;77.45;99446.48;2191130;80;21712;-73
2021/03/24 03:43:06;;;;;;;27.42;9.40;;;;;;;3.63;77.42;99436.52;2193357;80;21751;-73
2021/03/24 03:46:08;;;;;;;;;;;;;;;3.61;77.29;99442.63;2192816;80;21300;-73
2021/03/24 03:49:10;;;;;;;27.77;9.10;;;;;;;3.61;77.41;99435.69;2195247;80;20227;-73
2021/03/24 03:52:12;;;;;;;30.82;9.50;;;;;;;3.56;77.23;99434.95;2192900;79;21332;-73
2021/03/24 03:55:14;;;;;;;27.87;9.50;;;;;;;3.54;77.44;99434.12;2191009;80;21327;-73
2021/03/24 03:58:16;;;;;;;30.20;9.73;;;;;;;3.54;77.56;99433.28;2193058;80;21328;-73
2021/03/24 04:01:18;;;;;;;28.20;9.48;;;;;;;3.54;77.57;99436.72;2194802;80;21295;-73
2021/03/24 04:04:20;;;;;;;26.33;9.78;;;;;;;3.53;77.61;99428.52;2192549;80;21280;-73
2021/03/24 04:07:22;;;;;;;24.87;9.00;;;;;;;3.56;77.51;99432.36;2193319;79;21384;-72
2021/03/24 04:10:24;;;;;;;26.17;9.63;;;;;;;3.54;77.50;99434.58;2194637;80;21743;-72
2021/03/24 04:13:26;;;;;;;27.40;9.65;;;;;;;3.52;77.52;99445.41;2187395;80;21292;-73
2021/03/24 04:16:28;;;;;;;27.60;9.38;;;;;;;3.51;77.80;99440.67;2178355;80;21268;-73
2021/03/24 04:19:30;;;;;;;26.73;9.23;;;;;;;3.51;77.85;99445.02;2188153;80;21285;-73
2021/03/24 04:22:32;;;;;;;28.05;9.10;;;;;;;3.52;77.47;99446.70;2190138;80;21292;-72
2021/03/24 04:25:34;;;;;;;31.42;10.18;;;;;;;3.50;77.47;99442.85;2187611;80;21292;-73
2021/03/24 04:28:36;;;;;;;27.40;9.80;;;;;;;3.51;77.40;99439.84;2170820;81;21283;-73
2021/03/24 04:31:38;;;;;;;28.47;10.30;;;;;;;3.52;77.53;99454.48;2190746;80;21289;-73
2021/03/24 04:34:40;;;;;;;31.30;9.90;;;;;;;3.53;77.68;99455.75;2189734;81;21288;-73
2021/03/24 04:37:42;;;;;;;27.02;9.73;;;;;;;3.53;77.67;99456.20;2188110;80;21284;-73
2021/03/24 04:40:45;;;;;;;25.75;8.75;;;;;;;3.51;77.52;99466.62;2189636;80;21787;-73
2021/03/24 04:43:47;;;;;;;27.20;10.23;;;;;;;3.49;77.96;99467.53;2178484;80;21312;-73
2021/03/24 04:46:49;;;;;;;;;;;;;;;3.47;77.88;99455.89;2199117;81;21289;-73
2021/03/24 04:49:51;;;;;;;32.73;10.25;;;;;;;3.46;78.22;99461.53;2189537;80;20234;-73
2021/03/24 04:52:53;;;;;;;25.75;9.60;;;;;;;3.46;77.89;99461.96;2186096;80;21300;-73
2021/03/24 04:55:55;;;;;;;28.12;10.48;;;;;;;3.51;77.89;99467.07;2182827;80;21292;-73
2021/03/24 04:58:57;;;;;;;28.57;9.53;;;;;;;3.52;77.88;99465.73;2190401;80;21276;-73
2021/03/24 05:01:59;;;;;;;26.57;10.18;;;;;;;3.55;77.71;99475.17;2174248;80;21280;-73
2021/03/24 05:05:01;;;;;;;29.12;10.20;;;;;;;3.56;77.66;99478.19;2195468;80;21294;-72
2021/03/24 05:08:04;;;;;;;32.00;10.98;;;;;;;3.58;77.60;99473.38;2203973;80;21905;-73
2021/03/24 05:11:06;;;;;;;28.45;10.68;;;;;;;3.64;77.59;99474.98;2197621;80;21752;-73
2021/03/24 05:14:08;;;;;;;30.90;10.88;;;;;;;3.70;77.49;99477.89;2188512;80;21324;-72
2021/03/24 05:17:10;;;;;;;28.70;10.05;;;;;;;3.79;77.49;99482.43;2174211;80;21232;-73
2021/03/24 05:20:12;;;;;;;27.80;9.78;;;;;;;3.87;77.19;99493.08;2193877;80;21305;-73
2021/03/24 05:23:14;;;;;;;28.17;10.63;;;;;;;3.86;77.27;99488.77;2196263;80;21292;-73
2021/03/24 05:26:16;;;;;;;32.20;10.93;;;;;;;3.84;77.30;99488.80;2199136;80;21300;-73
2021/03/24 05:29:18;;;;;;;26.97;10.18;;;;;;;3.87;77.24;99493.92;2192708;80;21301;-73
2021/03/24 05:32:21;;;;;;;30.77;10.78;;;;;;;3.92;77.04;99497.70;2178287;81;21732;-73
2021/03/24 05:35:23;;;;;;;29.77;10.58;;;;;;;3.94;77.02;99500.68;2192702;79;21744;-73
2021/03/24 05:38:25;;;;;;;29.27;10.00;;;;;;;3.99;77.12;99510.95;2191295;80;21807;-73
2021/03/24 05:41:27;;;;;;;28.62;10.18;;;;;;;4.07;76.98;99512.09;2196862;80;21277;-73
2021/03/24 05:44:29;;;;;;;30.80;10.15;;;;;;;4.12;76.80;99509.80;2195279;80;21296;-73
2021/03/24 05:47:31;;;;;;;29.27;10.25;;;;;;;4.18;76.82;99510.09;2200791;80;21759;-73
2021/03/24 05:50:33;;;;;;;28.60;10.35;;;;;;;4.16;76.94;99509.26;2202438;80;21170;-73
2021/03/24 05:53:35;;;;;;;29.67;10.53;;;;;;;4.22;76.76;99510.86;2184967;81;21312;-73
2021/03/24 05:56:37;;;;;;;30.68;10.72;;;;;;;4.26;76.68;99512.04;2196574;80;21288;-73
2021/03/24 05:59:39;;;;;;;28.10;11.12;;;;;;;4.33;76.52;99510.16;2204132;80;21748;-73
2021/03/24 06:02:42;;;;;;;33.18;11.35;;;;;;;4.42;76.45;99505.17;2212957;80;21732;-73
2021/03/24 06:05:44;;;;;;;30.37;10.88;;;;;;;4.53;76.33;99512.26;2192999;80;21292;-73
2021/03/24 06:08:46;;;;;;;33.48;11.43;;;;;;;4.58;76.08;99516.88;2190753;80;21753;-73
2021/03/24 06:11:48;;;;;;;31.07;11.25;;;;;;;4.62;75.80;99518.50;2190496;80;21724;-73
2021/03/24 06:14:50;;;;;;;31.48;10.30;;;;;;;4.65;75.83;99511.92;2198360;80;21756;-73
2021/03/24 06:17:52;;;;;;;29.48;10.95;;;;;;;4.65;75.57;99526.67;2188057;80;21336;-73
2021/03/24 06:20:54;;;;;;;31.68;11.20;;;;;;;4.62;75.93;99517.20;2185865;80;21359;-73
2021/03/24 06:23:56;;;;;;;30.55;11.63;;;;;;;4.67;75.72;99515.81;2196384;80;21316;-73
2021/03/24 06:26:58;;;;;;;29.52;11.83;;;;;;;4.70;75.68;99517.03;2192976;80;21150;-73
2021/03/24 06:30:00;;;;;;;31.68;11.83;;;;;;;4.70;75.68;99517.03;2197200;80;21275;-72
2021/03/24 06:33:02;;;;;;;31.07;12.15;;;;;;;4.73;75.49;99523.44;2206531;80;21166;-73
2021/03/24 06:36:04;;;;;;;31.48;11.93;;;;;;;4.77;75.48;99521.59;2190032;80;21319;-73
2021/03/24 06:39:06;;;;;;;30.48;11.80;;;;;;;4.85;75.56;99528.30;2205975;80;21299;-73
2021/03/24 06:42:08;;;;;;;33.53;11.85;;;;;;;4.92;75.17;99532.91;2189683;80;21182;-73
2021/03/24 06:45:10;;;;;;;30.15;10.93;;;;;;;4.96;75.60;99544.93;2187352;80;21291;-73
2021/03/24 06:48:12;;;;;;;29.98;13.25;;;;;;;4.96;75.28;99542.33;2194040;80;21312;-73
2021/03/24 06:51:14;;;;;;;32.65;12.63;;;;;;;4.93;74.93;99543.72;2203013;81;21284;-73
2021/03/24 06:54:16;;;;;;;34.08;12.82;;;;;;;4.94;75.42;99547.16;2189709;80;21288;-73
2021/03/24 06:57:18;;;;;;;33.80;12.07;;;;;;;4.93;75.07;99556.72;2186924;80;21285;-72
2021/03/24 07:00:20;;;;;;;28.85;12.05;;;;;;;4.90;75.10;99552.90;2193200;80;21291;-73
2021/03/24 07:03:22;;;;;;;33.73;12.47;;;;;;;4.90;75.32;99555.92;2165223;81;21538;-73
2021/03/24 07:06:25;;;;;;;29.57;12.35;;;;;;;4.95;75.26;99554.08;2195487;80;21298;-73
2021/03/24 07:09:27;;;;;;;33.00;12.20;;;;;;;5.04;75.03;99556.41;2202429;80;21586;-73
2021/03/24 07:12:29;;;;;;;31.60;12.58;;;;;;;5.14;75.17;99554.00;2190648;80;21304;-73
2021/03/24 07:15:31;;;;;;;33.28;13.90;;;;;;;5.24;74.89;99557.17;2190650;80;21304;-72
2021/03/24 07:18:33;;;;;;;32.88;13.05;;;;;;;5.22;74.54;99560.28;2199673;80;21299;-73
2021/03/24 07:21:35;;;;;;;32.50;13.18;;;;;;;5.17;74.60;99564.74;2204211;81;21276;-73
2021/03/24 07:24:37;;;;;;;30.68;13.30;;;;;;;5.18;74.88;99566.00;2188216;80;21743;-72
2021/03/24 07:27:39;;;;;;;32.50;12.45;;;;;;;5.26;74.67;99569.71;2192306;80;22169;-73
2021/03/24 07:30:41;;;;;;;32.25;13.13;;;;;;;5.29;74.83;99564.88;2189275;80;21750;-73
2021/03/24 07:33:43;;;;;;;35.25;13.08;;;;;;;5.30;74.33;99573.06;2198760;80;21713;-73
2021/03/24 07:36:45;;;;;;;36.00;13.58;;;;;;;5.27;74.86;99575.33;2203564;80;21303;-73
2021/03/24 07:39:47;;;;;;;34.00;14.55;;;;;;;5.25;74.52;99573.66;2197289;80;21717;-73
2021/03/24 07:42:49;;;;;;;35.15;13.13;;;;;;;5.27;74.87;99581.83;2195882;80;21297;-73
2021/03/24 07:45:52;;;;;;;35.98;13.75;;;;;;;5.32;74.36;99581.70;2193595;79;21150;-73
2021/03/24 07:48:54;;;;;;;34.03;13.03;;;;;;;5.31;74.28;99583.89;2189023;80;21312;-72
2021/03/24 07:51:56;;;;;;;39.15;14.43;;;;;;;5.33;74.35;99593.36;2184555;80;21308;-73
2021/03/24 07:54:58;;;;;;;34.25;13.75;;;;;;;5.39;74.21;99587.14;2205322;81;21295;-73
2021/03/24 07:58:00;;;;;;;32.83;14.00;;;;;;;5.48;74.30;99590.77;2195355;80;21268;-72
2021/03/24 08:01:02;;;;;;;35.80;15.05;;;;;;;5.51;73.96;99582.87;2178987;80;21279;-73
2021/03/24 08:04:04;;;;;;;35.58;14.58;;;;;;;5.54;73.50;99586.69;2191007;80;21312;-73
2021/03/24 08:07:06;;;;;;;34.65;14.33;;;;;;;5.64;73.89;99596.39;2192355;80;21299;-72
2021/03/24 08:10:08;;;;;;;42.65;15.03;;;;;;;5.64;73.66;99583.38;2194117;80;21167;-73
2021/03/24 08:13:10;;;;;;;38.58;15.45;;;;;;;5.68;73.37;99595.88;2191043;80;21276;-73
2021/03/24 08:16:12;;;;;;;34.45;14.65;;;;;;;5.64;73.15;99598.16;2137669;82;21279;-72
2021/03/24 08:19:14;;;;;;;44.15;16.57;;;;;;;5.56;73.54;99594.48;2109175;82;21300;-72
2021/03/24 08:22:16;;;;;;;35.00;14.95;;;;;;;5.47;73.32;99594.26;2106648;83;21326;-72
2021/03/24 08:25:20;;;;;;;33.55;14.13;;;;;;;5.40;74.17;99595.33;2103705;83;21301;-73
2021/03/24 08:28:22;;;;;;;39.55;17.10;;;;;;;5.36;73.79;99595.88;2132899;82;21741;-72
2021/03/24 08:31:24;;;;;;;37.05;15.48;;;;;;;5.37;74.26;99606.70;2118638;83;21764;-73
2021/03/24 08:34:26;;;;;;;39.48;15.98;;;;;;;5.31;74.11;99599.49;2119365;83;21328;-73
2021/03/24 08:37:28;;;;;;;38.25;16.32;;;;;;;5.17;74.30;99613.73;2091890;82;21284;-72
2021/03/24 08:40:30;;;;;;;36.23;15.13;;;;;;;5.02;74.66;99606.32;2100632;83;21378;-72
2021/03/24 08:43:32;;;;;;;34.98;15.13;;;;;;;4.99;74.59;99600.75;2113918;83;21580;-73
2021/03/24 08:46:37;;;;;;;38.17;16.95;;;;;;;4.94;75.11;99600.45;2127207;83;21865;-73
2021/03/24 08:49:44;;;;;;;39.48;16.52;;;;;;;4.95;74.86;99607.38;2120678;83;21325;-73
2021/03/24 08:52:45;;;;;;;40.58;15.88;;;;;;;4.96;75.16;99603.43;2119305;83;21599;-72
2021/03/24 08:55:47;;;;;;;37.17;15.85;;;;;;;4.93;75.21;99600.03;2124431;83;21243;-72
2021/03/24 08:58:49;;;;;;;38.83;16.48;;;;;;;4.96;75.03;99600.83;2126191;83;21289;-72
2021/03/24 09:01:51;;;;;;;35.00;15.40;;;;;;;5.03;74.83;99595.03;2121160;82;21314;-72
2021/03/24 09:04:54;;;;;;;41.70;16.95;;;;;;;5.11;74.95;99590.92;2121868;82;21160;-72
2021/03/24 09:07:57;;;;;;;;;;;;;;;5.15;74.56;99595.99;2115525;83;21187;-73
2021/03/24 09:10:59;;;;;;;38.85;16.02;;;;;;;5.19;74.70;99588.98;2120439;83;20231;-73
2021/03/24 09:14:01;;;;;;;43.28;16.75;;;;;;;5.30;74.22;99591.28;2109315;83;21330;-73
2021/03/24 09:17:03;;;;;;;38.95;15.70;;;;;;;5.35;74.65;99590.25;2122659;83;21317;-73
2021/03/24 09:20:05;;;;;;;37.42;15.30;;;;;;;5.44;74.14;99594.81;2112772;83;21688;-72
2021/03/24 09:23:07;;;;;;;39.85;15.45;;;;;;;5.50;73.86;99596.80;2120741;83;21215;-72
2021/03/24 09:26:09;;;;;;;38.10;15.20;;;;;;;5.55;73.71;99589.70;2100579;83;21617;-72
2021/03/24 09:29:11;;;;;;;41.33;17.67;;;;;;;5.59;73.91;99593.09;2122914;82;21380;-72
2021/03/24 09:32:14;;;;;;;42.10;16.50;;;;;;;5.75;73.88;99594.80;2112820;83;21776;-73
2021/03/24 09:35:15;;;;;;;39.42;15.90;;;;;;;5.86;73.41;99591.44;2112170;83;22074;-72
2021/03/24 09:38:19;;;;;;;40.20;16.07;;;;;;;5.96;73.03;99588.55;2192401;80;21174;-72
2021/03/24 09:41:21;;;;;;;40.23;16.50;;;;;;;6.01;72.49;99584.94;2205334;80;21288;-72
2021/03/24 09:44:23;;;;;;;36.28;15.18;;;;;;;6.09;72.80;99582.09;2189919;80;21292;-72
2021/03/24 09:47:25;;;;;;;40.45;15.45;;;;;;;6.15;71.87;99580.63;2197134;80;21296;-73
2021/03/24 09:50:27;;;;;;;36.98;15.53;;;;;;;6.21;71.97;99577.81;2192866;80;21311;-72
2021/03/24 09:53:30;;;;;;;36.88;15.40;;;;;;;6.29;71.46;99590.59;2199898;80;21295;-73
2021/03/24 09:56:32;;;;;;;38.85;16.25;;;;;;;6.27;71.65;99577.23;2209028;79;21653;-72
2021/03/24 09:59:34;;;;;;;36.23;14.40;;;;;;;6.41;72.21;99580.27;2178475;80;21299;-72
2021/03/24 10:02:36;;;;;;;34.18;14.35;;;;;;;6.52;71.20;99573.38;2209339;80;21387;-73
2021/03/24 10:05:38;;;;;;;38.40;15.30;;;;;;;6.47;70.87;99588.34;2160620;80;21271;-72
2021/03/24 10:08:40;;;;;;;36.77;14.40;;;;;;;6.43;70.72;99571.09;2182977;80;21331;-73
2021/03/24 10:11:42;;;;;;;31.33;13.03;;;;;;;6.40;70.06;99575.48;2183614;80;21287;-73
2021/03/24 10:14:44;;;;;;;31.97;13.15;;;;;;;6.40;70.70;99580.69;2168653;80;21771;-72
2021/03/24 10:17:46;;;;;;;33.40;11.63;;;;;;;6.56;70.56;99566.71;2208150;80;21271;-73
2021/03/24 10:20:48;;;;;;;31.55;12.37;;;;;;;6.73;69.20;99571.84;2189005;80;21170;-73
2021/03/24 10:23:50;;;;;;;32.25;12.18;;;;;;;6.71;69.02;99578.41;2195422;80;21288;-72
2021/03/24 10:26:52;;;;;;;28.45;12.30;;;;;;;6.69;69.57;99573.68;2184142;80;21319;-72
2021/03/24 10:29:54;;;;;;;31.85;12.75;;;;;;;6.69;69.15;99563.71;2195871;80;21309;-73
2021/03/24 10:32:56;;;;;;;32.80;12.73;;;;;;;6.78;69.50;99565.16;2201534;80;21282;-72
2021/03/24 10:35:59;;;;;;;33.67;12.68;;;;;;;6.89;69.69;99565.66;2213035;80;21292;-72
2021/03/24 10:39:01;;;;;;;26.85;11.88;;;;;;;6.87;68.93;99567.47;2192922;80;21276;-72
2021/03/24 10:42:03;;;;;;;28.10;11.28;;;;;;;6.91;68.72;99567.73;2187458;80;21299;-73
2021/03/24 10:45:05;;;;;;;29.70;11.35;;;;;;;6.97;68.42;99569.29;2166258;80;21276;-72
2021/03/24 10:48:07;;;;;;;29.07;11.43;;;;;;;6.89;67.74;99569.56;2206702;79;21296;-72
2021/03/24 10:51:09;;;;;;;26.07;10.90;;;;;;;6.81;67.83;99568.96;2207594;80;21367;-73
2021/03/24 10:54:11;;;;;;;29.50;11.75;;;;;;;6.77;68.30;99566.92;2202525;80;21125;-72
2021/03/24 10:57:13;;;;;;;28.70;12.30;;;;;;;6.69;67.37;99568.92;2201353;80;21141;-73
2021/03/24 11:00:15;;;;;;;30.77;11.53;;;;;;;6.63;67.81;99562.16;2196665;80;21307;-72
2021/03/24 11:03:17;;;;;;;29.07;11.73;;;;;;;6.64;68.64;99561.27;2156795;81;21272;-72
2021/03/24 11:06:19;;;;;;;27.07;11.43;;;;;;;6.68;68.22;99556.78;2199796;80;21275;-72
2021/03/24 11:09:21;;;;;;;32.55;13.22;;;;;;;6.68;67.95;99555.48;2203743;79;21285;-73
2021/03/24 11:12:24;;;;;;;32.03;13.03;;;;;;;6.64;67.51;99559.96;2191476;80;21616;-72
2021/03/24 11:15:26;;;;;;;30.52;12.82;;;;;;;6.62;67.42;99555.23;2185172;80;21746;-72
2021/03/24 11:18:28;;;;;;;28.83;12.75;;;;;;;6.68;67.71;99547.66;2196988;80;21708;-72
2021/03/24 11:21:30;;;;;;;29.37;12.58;;;;;;;6.72;67.26;99550.14;2197958;80;21711;-73
2021/03/24 11:24:33;;;;;;;33.45;12.88;;;;;;;6.73;67.10;99546.61;2196748;80;21312;-72
2021/03/24 11:27:36;;;;;;;26.33;11.22;;;;;;;6.78;67.92;99542.99;2192154;80;21190;-72
2021/03/24 11:30:38;;;;;;;31.50;11.60;;;;;;;6.83;67.55;99547.15;2213407;80;21300;-72
2021/03/24 11:33:40;;;;;;;29.10;11.57;;;;;;;6.79;66.97;99543.41;2183010;80;21189;-72
2021/03/24 11:36:42;;;;;;;30.17;12.07;;;;;;;6.75;67.66;99540.91;2192270;80;21307;-72
2021/03/24 11:39:44;;;;;;;31.48;12.60;;;;;;;6.75;66.90;99543.94;2184201;80;21315;-72
2021/03/24 11:42:46;;;;;;;31.45;12.60;;;;;;;6.71;67.71;99539.30;2202774;80;21288;-72
2021/03/24 11:45:48;;;;;;;34.27;12.65;;;;;;;6.82;67.23;99538.08;2200405;80;21735;-72
2021/03/24 11:48:50;;;;;;;31.85;12.03;;;;;;;6.87;67.60;99538.32;2196815;80;21724;-72
2021/03/24 11:51:57;;;;;;;29.45;11.85;;;;;;;7.02;67.27;99542.61;2203076;80;21407;-72
2021/03/24 11:54:56;;;;;;;30.80;11.80;;;;;;;7.16;66.83;99539.52;2186715;80;21978;-72
2021/03/24 11:57:58;;;;;;;31.82;12.68;;;;;;;7.19;66.94;99540.25;2197824;80;21324;-72
2021/03/24 12:01:00;;;;;;;28.92;12.45;;;;;;;7.37;66.35;99532.66;2194943;79;21303;-72
2021/03/24 12:04:02;;;;;;;30.35;12.82;;;;;;;7.41;65.57;99527.30;2195432;80;21763;-72
2021/03/24 12:07:04;;;;;;;29.40;13.05;;;;;;;7.43;65.61;99524.16;2197440;80;21715;-72
2021/03/24 12:10:06;;;;;;;28.52;11.97;;;;;;;7.45;65.52;99523.63;2184795;80;21291;-72
2021/03/24 12:13:08;;;;;;;32.13;13.28;;;;;;;7.46;65.15;99524.05;2186885;80;21311;-72
2021/03/24 12:16:10;;;;;;;30.88;12.88;;;;;;;7.46;65.15;99517.98;2189336;80;21374;-72
2021/03/24 12:19:12;;;;;;;31.10;13.38;;;;;;;7.49;65.49;99515.25;2188978;80;21334;-72
2021/03/24 12:22:14;;;;;;;31.68;14.18;;;;;;;7.49;65.25;99519.63;2196529;80;21331;-72
2021/03/24 12:25:16;;;;;;;28.00;13.20;;;;;;;7.54;65.54;99508.55;2179803;80;21763;-72
2021/03/24 12:28:18;;;;;;;31.02;13.45;;;;;;;7.73;65.60;99515.22;2187016;80;21138;-72
2021/03/24 12:31:21;;;;;;;32.67;14.23;;;;;;;7.94;64.79;99505.71;2204440;79;21315;-72
2021/03/24 12:34:24;;;;;;;30.50;13.83;;;;;;;8.25;64.85;99499.27;2197142;79;21303;-72
2021/03/24 12:37:26;;;;;;;31.45;13.90;;;;;;;8.56;64.08;99501.51;2179614;80;21340;-72
2021/03/24 12:40:28;;;;;;;27.50;12.15;;;;;;;8.84;63.71;99493.31;2196701;80;21320;-72
2021/03/24 12:43:30;;;;;;;27.85;12.03;;;;;;;8.93;62.01;99499.91;2193868;80;21312;-72
2021/03/24 12:46:32;;;;;;;26.62;11.20;;;;;;;8.99;60.98;99494.44;2179902;80;21312;-72
2021/03/24 12:49:34;;;;;;;;;;;;;;;9.15;62.25;99491.12;2186525;80;21650;-72
2021/03/24 12:52:36;;;;;;;31.77;12.10;;;;;;;9.44;61.63;99487.20;2188217;80;20210;-72
2021/03/24 12:55:38;;;;;;;31.02;11.83;;;;;;;9.46;59.44;99489.28;2194488;80;21280;-72
2021/03/24 12:58:40;;;;;;;25.75;11.08;;;;;;;9.28;60.73;99483.13;2196921;80;21312;-72
2021/03/24 13:01:43;;;;;;;29.75;11.53;;;;;;;9.22;60.74;99491.70;2190424;80;21736;-72
2021/03/24 13:04:45;;;;;;;30.65;11.57;;;;;;;9.08;60.81;99485.33;2177071;80;21304;-72
2021/03/24 13:07:47;;;;;;;30.32;12.00;;;;;;;8.91;60.99;99485.22;2195918;80;21287;-72
2021/03/24 13:10:50;;;;;;;27.25;11.68;;;;;;;8.60;61.36;99484.75;2181257;80;21268;-72
2021/03/24 13:13:52;;;;;;;;;;;;;;;8.43;61.90;99480.66;2195817;80;21276;-72
2021/03/24 13:16:54;;;;;;;27.65;11.18;;;;;;;8.31;61.38;99481.55;2197551;80;20263;-72
2021/03/24 13:19:56;;;;;;;25.77;10.53;;;;;;;8.18;62.28;99484.28;2190069;80;21169;-72
2021/03/24 13:22:59;;;;;;;26.40;10.55;;;;;;;8.03;61.59;99484.90;2189031;80;21295;-72
2021/03/24 13:26:01;;;;;;;26.85;10.58;;;;;;;7.84;62.33;99480.87;2196126;80;21299;-72
2021/03/24 13:29:03;;;;;;;25.50;10.35;;;;;;;7.79;62.08;99477.98;2197992;80;21276;-72
2021/03/24 13:32:05;;;;;;;29.12;10.03;;;;;;;7.73;61.57;99479.53;2191042;80;21300;-72
2021/03/24 13:35:07;;;;;;;31.02;9.50;;;;;;;7.66;62.26;99462.83;2208423;80;21288;-72
2021/03/24 13:38:09;;;;;;;26.90;10.03;;;;;;;7.87;62.74;99470.30;2197349;80;21295;-72
2021/03/24 13:41:11;;;;;;;25.35;10.18;;;;;;;7.94;61.70;99473.05;2194810;80;21367;-72
2021/03/24 13:44:13;;;;;;;28.25;10.88;;;;;;;7.92;62.00;99461.83;2189624;80;21285;-72
2021/03/24 13:47:15;;;;;;;28.62;10.72;;;;;;;8.01;61.37;99467.98;2196577;80;21296;-72
2021/03/24 13:50:17;;;;;;;29.07;10.58;;;;;;;8.11;61.32;99470.61;2190778;80;21307;-72
2021/03/24 13:53:19;;;;;;;28.07;10.43;;;;;;;8.23;61.93;99465.80;2190845;80;21327;-72
2021/03/24 13:56:21;;;;;;;29.05;10.55;;;;;;;8.38;61.23;99470.41;2205412;79;21609;-72
2021/03/24 13:59:24;;;;;;;30.62;11.88;;;;;;;8.51;60.56;99466.84;2202482;80;21716;-72
2021/03/24 14:02:26;;;;;;;28.95;11.45;;;;;;;8.58;60.34;99465.67;2189616;80;21323;-72
2021/03/24 14:05:28;;;;;;;26.97;10.38;;;;;;;8.66;60.49;99467.95;2207571;80;21150;-72
2021/03/24 14:08:30;;;;;;;29.12;11.43;;;;;;;8.65;60.27;99461.04;2191146;79;21775;-72
2021/03/24 14:11:32;;;;;;;27.13;11.05;;;;;;;8.66;60.39;99457.48;2189153;80;21729;-72